createdAt,value
2022-12-24T00:01:34.186Z,8.50
2022-12-24T00:04:00.979Z,8.23
2022-12-24T00:06:27.489Z,11.93
2022-12-24T00:08:54.030Z,12.07
2022-12-24T00:11:21.114Z,11.93
2022-12-24T00:13:48.128Z,12.73
2022-12-24T00:16:15.072Z,9.37
2022-12-24T00:18:45.818Z,11.57
2022-12-24T00:21:14.185Z,8.83
2022-12-24T00:23:40.915Z,10.93
2022-12-24T00:26:07.836Z,7.20
2022-12-24T00:28:34.322Z,10.13
2022-12-24T00:31:07.429Z,13.97
2022-12-24T00:33:33.933Z,15.97
2022-12-24T00:36:00.389Z,13.13
2022-12-24T00:38:26.904Z,9.53
2022-12-24T00:40:58.858Z,14.17
2022-12-24T00:43:25.329Z,8.93
2022-12-24T00:45:51.805Z,13.37
2022-12-24T00:48:18.376Z,10.40
2022-12-24T00:50:44.954Z,13.17
2022-12-24T00:53:11.440Z,11.93
2022-12-24T00:55:37.998Z,13.00
2022-12-24T00:58:04.462Z,11.13
2022-12-24T01:00:30.987Z,11.90
2022-12-24T01:02:57.704Z,12.67
2022-12-24T01:05:24.479Z,14.07
2022-12-24T01:07:50.991Z,9.40
2022-12-24T01:10:20.266Z,11.07
2022-12-24T01:12:47.383Z,11.93
2022-12-24T01:15:14.752Z,10.80
2022-12-24T01:17:41.404Z,9.13
2022-12-24T01:20:11.351Z,12.57
2022-12-24T01:22:37.796Z,7.97
2022-12-24T01:25:05.031Z,12.77
2022-12-24T01:27:32.930Z,9.87
2022-12-24T01:29:59.388Z,12.63
2022-12-24T01:32:25.853Z,13.13
2022-12-24T01:34:52.308Z,13.23
2022-12-24T01:37:18.751Z,9.43
2022-12-24T01:39:45.300Z,9.20
2022-12-24T01:42:37.063Z,12.90
2022-12-24T01:45:34.248Z,9.80
2022-12-24T01:48:00.898Z,6.03
2022-12-24T01:50:27.535Z,12.53
2022-12-24T01:52:54.325Z,12.63
2022-12-24T01:55:21.024Z,9.73
2022-12-24T01:57:59.547Z,15.70
2022-12-24T02:00:26.100Z,9.43
2022-12-24T02:02:53.812Z,12.60
2022-12-24T02:05:49.928Z,7.57
2022-12-24T02:08:17.761Z,10.53
2022-12-24T02:10:45.822Z,11.80
2022-12-24T02:13:14.195Z,7.73
2022-12-24T02:16:05.235Z,8.63
2022-12-24T02:18:43.896Z,11.50
2022-12-24T02:21:34.979Z,11.03
2022-12-24T02:24:17.662Z,9.33
2022-12-24T02:27:02.536Z,14.90
2022-12-24T02:30:05.517Z,11.00
2022-12-24T02:32:46.603Z,15.53
2022-12-24T02:35:32.967Z,8.63
2022-12-24T02:38:06.243Z,8.50
2022-12-24T02:40:46.815Z,11.17
2022-12-24T02:43:19.604Z,13.23
2022-12-24T02:45:56.915Z,11.80
2022-12-24T02:48:27.763Z,8.47
2022-12-24T02:51:07.109Z,21.10
2022-12-24T02:53:34.254Z,9.83
2022-12-24T02:56:14.874Z,10.90
2022-12-24T02:59:00.418Z,14.90
2022-12-24T03:01:58.037Z,11.57
2022-12-24T03:04:57.060Z,8.20
2022-12-24T03:07:34.738Z,12.17
2022-12-24T03:10:13.198Z,11.80
2022-12-24T03:12:44.036Z,10.63
2022-12-24T03:15:15.578Z,11.20
2022-12-24T03:17:46.116Z,15.03
2022-12-24T03:20:17.749Z,12.00
2022-12-24T03:22:44.539Z,20.03
2022-12-24T03:25:11.024Z,13.83
2022-12-24T03:27:38.788Z,15.47
2022-12-24T03:30:10.658Z,10.53
2022-12-24T03:32:37.095Z,12.23
2022-12-24T03:35:03.829Z,14.60
2022-12-24T03:37:30.310Z,16.80
2022-12-24T03:39:56.852Z,12.80
2022-12-24T03:42:23.302Z,13.47
2022-12-24T03:44:49.890Z,16.83
2022-12-24T03:47:16.396Z,15.30
2022-12-24T03:49:43.108Z,21.30
2022-12-24T03:52:09.550Z,13.97
2022-12-24T03:54:35.999Z,9.73
2022-12-24T03:57:02.483Z,17.47
2022-12-24T03:59:28.960Z,15.03
2022-12-24T04:01:55.676Z,12.80
2022-12-24T04:04:22.329Z,19.07
2022-12-24T04:06:48.753Z,15.33
2022-12-24T04:09:15.820Z,19.30
2022-12-24T04:11:42.305Z,14.10
2022-12-24T04:14:08.771Z,16.90
2022-12-24T04:16:35.260Z,20.63
2022-12-24T04:19:01.772Z,12.67
2022-12-24T04:21:28.234Z,11.97
2022-12-24T04:23:54.728Z,16.03
2022-12-24T04:26:21.205Z,15.27
2022-12-24T04:28:47.664Z,17.33
2022-12-24T04:31:16.736Z,18.40
2022-12-24T04:33:43.937Z,13.03
2022-12-24T04:36:13.349Z,12.83
2022-12-24T04:38:40.052Z,13.70
2022-12-24T04:41:26.783Z,17.20
2022-12-24T04:43:54.783Z,17.53
2022-12-24T04:46:30.850Z,22.17
2022-12-24T04:48:58.264Z,19.17
2022-12-24T04:51:26.546Z,19.13
2022-12-24T04:53:53.636Z,15.90
2022-12-24T04:56:23.119Z,18.30
2022-12-24T04:58:50.274Z,19.43
2022-12-24T05:01:30.779Z,16.57
2022-12-24T05:03:58.102Z,21.83
2022-12-24T05:06:29.634Z,19.80
2022-12-24T05:08:57.554Z,15.67
2022-12-24T05:11:24.340Z,18.07
2022-12-24T05:13:51.023Z,18.50
2022-12-24T05:16:19.874Z,21.73
2022-12-24T05:18:46.643Z,22.73
2022-12-24T05:21:19.647Z,16.37
2022-12-24T05:24:05.107Z,16.83
2022-12-24T05:26:41.300Z,16.97
2022-12-24T05:29:08.508Z,23.27
2022-12-24T05:31:36.211Z,17.87
2022-12-24T05:34:03.416Z,20.60
2022-12-24T05:36:30.468Z,23.23
2022-12-24T05:38:57.021Z,21.67
2022-12-24T05:41:23.605Z,21.63
2022-12-24T05:43:50.223Z,18.97
2022-12-24T05:46:19.667Z,21.53
2022-12-24T05:48:47.325Z,22.87
2022-12-24T05:51:15.321Z,22.77
2022-12-24T05:53:41.810Z,20.83
2022-12-24T05:56:10.251Z,21.13
2022-12-24T05:58:37.231Z,22.43
2022-12-24T06:01:05.607Z,22.07
2022-12-24T06:03:32.870Z,21.70
2022-12-24T06:06:07.208Z,23.27
2022-12-24T06:08:34.794Z,22.10
2022-12-24T06:11:05.489Z,20.67
2022-12-24T06:13:32.532Z,16.33
2022-12-24T06:16:00.873Z,22.10
2022-12-24T06:18:30.019Z,27.70
2022-12-24T06:20:58.203Z,19.47
2022-12-24T06:23:25.681Z,21.93
2022-12-24T06:25:52.284Z,20.90
2022-12-24T06:28:18.928Z,23.80
2022-12-24T06:30:50.576Z,20.70
2022-12-24T06:33:17.720Z,30.10
2022-12-24T06:35:48.064Z,24.27
2022-12-24T06:38:15.767Z,16.63
2022-12-24T06:40:44.386Z,22.00
2022-12-24T06:43:11.339Z,24.20
2022-12-24T06:45:37.887Z,20.03
2022-12-24T06:48:04.826Z,23.03
2022-12-24T06:50:32.835Z,27.73
2022-12-24T06:52:59.304Z,26.37
2022-12-24T06:55:25.760Z,19.77
2022-12-24T06:57:52.221Z,16.73
2022-12-24T07:00:19.011Z,24.93
2022-12-24T07:02:45.553Z,18.83
2022-12-24T07:05:13.344Z,18.83
2022-12-24T07:07:44.739Z,24.37
2022-12-24T07:10:13.635Z,23.00
2022-12-24T07:12:40.069Z,15.77
2022-12-24T07:15:07.088Z,32.07
2022-12-24T07:17:33.698Z,18.10
2022-12-24T07:20:00.254Z,21.40
2022-12-24T07:22:26.784Z,20.47
2022-12-24T07:24:53.253Z,28.97
2022-12-24T07:27:20.538Z,21.77
2022-12-24T07:29:47.616Z,24.60
2022-12-24T07:32:14.175Z,25.37
2022-12-24T07:34:40.690Z,21.97
2022-12-24T07:37:07.887Z,29.73
2022-12-24T07:39:34.479Z,21.53
2022-12-24T07:42:01.113Z,21.73
2022-12-24T07:44:27.585Z,22.20
2022-12-24T07:46:54.150Z,22.93
2022-12-24T07:49:20.620Z,20.53
2022-12-24T07:51:47.171Z,24.10
2022-12-24T07:54:13.678Z,23.57
2022-12-24T07:56:40.135Z,19.40
2022-12-24T07:59:06.620Z,18.33
2022-12-24T08:01:33.183Z,16.63
2022-12-24T08:03:59.809Z,25.40
2022-12-24T08:06:26.279Z,18.77
2022-12-24T08:08:52.724Z,24.10
2022-12-24T08:11:19.213Z,22.47
2022-12-24T08:13:45.696Z,24.77
2022-12-24T08:16:12.564Z,27.33
2022-12-24T08:18:39.079Z,21.40
2022-12-24T08:21:08.801Z,26.67
2022-12-24T08:23:36.504Z,26.00
2022-12-24T08:26:03.182Z,20.70
2022-12-24T08:28:29.833Z,28.73
2022-12-24T08:30:56.310Z,27.17
2022-12-24T08:33:22.788Z,21.03
2022-12-24T08:35:54.640Z,18.87
2022-12-24T08:38:22.103Z,23.63
2022-12-24T08:40:49.972Z,25.20
2022-12-24T08:43:18.050Z,20.70
2022-12-24T08:45:45.274Z,25.27
2022-12-24T08:48:11.961Z,21.50
2022-12-24T08:50:40.622Z,28.63
2022-12-24T08:56:09.897Z,28.13
2022-12-24T08:58:37.131Z,30.90
2022-12-24T09:01:11.141Z,30.83
2022-12-24T09:03:37.659Z,24.67
2022-12-24T09:06:05.239Z,22.17
2022-12-24T09:08:32.711Z,25.27
2022-12-24T09:11:05.056Z,22.87
2022-12-24T09:13:31.547Z,23.27
2022-12-24T09:15:58.840Z,26.00
2022-12-24T09:18:26.416Z,27.57
2022-12-24T09:20:59.442Z,24.00
2022-12-24T09:23:26.405Z,22.47
2022-12-24T09:25:52.931Z,25.10
2022-12-24T09:28:19.982Z,25.27
2022-12-24T09:30:55.706Z,19.67
2022-12-24T09:33:22.178Z,26.83
2022-12-24T09:35:51.411Z,19.73
2022-12-24T09:38:18.585Z,25.83
2022-12-24T09:40:45.159Z,18.43
2022-12-24T09:43:18.443Z,22.30
2022-12-24T09:45:56.783Z,23.60
2022-12-24T09:48:29.426Z,23.37
2022-12-24T09:51:03.319Z,27.93
2022-12-24T09:53:51.551Z,26.83
2022-12-24T09:56:24.930Z,20.67
2022-12-24T09:58:57.454Z,19.67
2022-12-24T10:01:24.086Z,19.90
2022-12-24T10:03:50.715Z,20.13
2022-12-24T10:06:29.645Z,29.10
2022-12-24T10:09:11.441Z,20.43
2022-12-24T10:12:19.540Z,19.63
2022-12-24T10:15:24.959Z,18.93
2022-12-24T10:18:06.091Z,24.73
2022-12-24T10:20:57.191Z,25.33
2022-12-24T10:23:32.063Z,21.90
2022-12-24T10:26:46.207Z,25.40
2022-12-24T10:29:20.844Z,26.23
2022-12-24T10:32:05.894Z,21.40
2022-12-24T10:34:40.381Z,17.70
2022-12-24T10:37:18.565Z,22.20
2022-12-24T10:39:45.258Z,13.53
2022-12-24T10:42:16.184Z,20.90
2022-12-24T10:44:45.567Z,18.83
2022-12-24T10:47:13.431Z,19.20
2022-12-24T10:49:47.245Z,16.00
2022-12-24T10:52:21.570Z,20.00
2022-12-24T10:55:17.093Z,16.70
2022-12-24T10:57:45.075Z,16.47
2022-12-24T11:00:22.817Z,19.87
2022-12-24T11:03:05.027Z,17.80
2022-12-24T11:05:34.639Z,15.50
2022-12-24T11:08:17.370Z,20.83
2022-12-24T11:11:05.730Z,17.20
2022-12-24T11:13:38.233Z,22.67
2022-12-24T11:16:17.760Z,21.13
2022-12-24T11:18:53.928Z,23.93
2022-12-24T11:21:32.879Z,21.03
2022-12-24T11:24:06.188Z,14.20
2022-12-24T11:26:32.670Z,15.17
2022-12-24T11:29:16.456Z,17.63
2022-12-24T11:31:44.770Z,19.00
2022-12-24T11:34:31.460Z,17.27
2022-12-24T11:37:16.861Z,16.47
2022-12-24T11:39:49.760Z,17.67
2022-12-24T11:42:24.072Z,15.93
2022-12-24T11:44:56.490Z,17.23
2022-12-24T11:47:34.975Z,22.70
2022-12-24T11:50:25.404Z,21.77
2022-12-24T11:53:04.260Z,18.70
2022-12-24T11:55:33.924Z,18.40
2022-12-24T11:58:15.314Z,21.83
2022-12-24T12:00:44.413Z,19.97
2022-12-24T12:03:42.168Z,15.77
2022-12-24T12:06:25.576Z,20.93
2022-12-24T12:09:01.339Z,17.50
2022-12-24T12:11:29.276Z,18.67
2022-12-24T12:13:59.861Z,20.30
2022-12-24T12:16:58.097Z,16.20
2022-12-24T12:19:27.918Z,21.03
2022-12-24T12:21:54.577Z,16.63
2022-12-24T12:24:37.192Z,22.03
2022-12-24T12:27:10.919Z,18.37
2022-12-24T12:29:44.846Z,20.00
2022-12-24T12:32:24.750Z,22.00
2022-12-24T12:35:50.723Z,11.30
2022-12-24T12:38:23.754Z,20.53
2022-12-24T12:41:24.199Z,15.87
2022-12-24T12:44:03.500Z,16.37
2022-12-24T12:46:41.971Z,11.10
2022-12-24T12:49:36.058Z,11.53
2022-12-24T12:52:17.059Z,10.80
2022-12-24T12:55:22.197Z,10.77
2022-12-24T12:57:53.091Z,14.37
2022-12-24T13:00:20.057Z,12.33
2022-12-24T13:03:09.289Z,10.87
2022-12-24T13:05:57.852Z,9.50
2022-12-24T13:08:39.575Z,13.70
2022-12-24T13:11:20.684Z,16.30
2022-12-24T13:13:54.010Z,10.03
2022-12-24T13:16:35.399Z,13.00
2022-12-24T13:19:14.100Z,16.37
2022-12-24T13:21:45.927Z,16.70
2022-12-24T13:24:18.932Z,12.63
2022-12-24T13:27:18.656Z,15.07
2022-12-24T13:29:54.231Z,13.00
2022-12-24T13:32:20.617Z,13.97
2022-12-24T13:34:52.776Z,14.67
2022-12-24T13:37:32.564Z,18.13
2022-12-24T13:40:08.513Z,17.80
2022-12-24T13:43:04.658Z,14.00
2022-12-24T13:45:31.586Z,17.27
2022-12-24T13:48:00.970Z,14.90
2022-12-24T13:50:38.319Z,19.07
2022-12-24T13:53:07.069Z,17.47
2022-12-24T13:55:34.581Z,19.23
2022-12-24T13:58:05.815Z,18.63
2022-12-24T14:00:42.507Z,16.80
2022-12-24T14:03:15.400Z,12.53
2022-12-24T14:05:51.045Z,17.40
2022-12-24T14:08:30.394Z,16.80
2022-12-24T14:11:08.067Z,16.53
2022-12-24T14:13:40.503Z,17.63
2022-12-24T14:16:11.998Z,18.33
2022-12-24T14:18:40.784Z,14.67
2022-12-24T14:21:15.497Z,16.43
2022-12-24T14:24:03.347Z,19.93
2022-12-24T14:26:36.345Z,19.73
2022-12-24T14:29:19.906Z,23.30
2022-12-24T14:31:54.106Z,17.77
2022-12-24T14:34:20.622Z,18.20
2022-12-24T14:36:49.096Z,17.67
2022-12-24T14:39:27.950Z,14.33
2022-12-24T14:42:04.553Z,20.03
2022-12-24T14:44:58.361Z,21.07
2022-12-24T14:47:55.064Z,17.10
2022-12-24T14:50:48.060Z,19.33
2022-12-24T14:53:25.580Z,17.67
2022-12-24T14:55:52.251Z,19.27
2022-12-24T14:58:24.795Z,18.60
2022-12-24T15:00:53.124Z,18.10
2022-12-24T15:03:22.694Z,18.03
2022-12-24T15:05:59.531Z,20.10
2022-12-24T15:08:37.848Z,17.17
2022-12-24T15:11:08.795Z,18.90
2022-12-24T15:13:37.329Z,12.50
2022-12-24T15:16:08.362Z,19.10
2022-12-24T15:18:53.058Z,15.90
2022-12-24T15:21:42.404Z,18.50
2022-12-24T15:24:23.884Z,15.33
2022-12-24T15:26:50.345Z,15.73
2022-12-24T15:29:23.276Z,19.80
2022-12-24T15:31:58.163Z,15.97
2022-12-24T15:34:29.126Z,22.10
2022-12-24T15:37:17.127Z,16.77
2022-12-24T15:39:44.955Z,16.80
2022-12-24T15:42:19.116Z,15.00
2022-12-24T15:45:02.892Z,19.33
2022-12-24T15:47:38.190Z,17.77
2022-12-24T15:50:30.170Z,21.10
2022-12-24T15:53:20.640Z,17.93
2022-12-24T15:56:04.137Z,18.87
2022-12-24T15:58:33.804Z,13.43
2022-12-24T16:01:13.788Z,14.23
2022-12-24T16:03:50.768Z,16.70
2022-12-24T16:06:17.526Z,24.40
2022-12-24T16:08:45.617Z,13.07
2022-12-24T16:11:17.435Z,17.53
2022-12-24T16:14:00.414Z,11.83
2022-12-24T16:16:42.026Z,18.40
2022-12-24T16:19:20.624Z,16.63
2022-12-24T16:21:52.721Z,14.77
2022-12-24T16:24:23.885Z,18.10
2022-12-24T16:26:51.567Z,17.23
2022-12-24T16:29:19.307Z,18.73
2022-12-24T16:31:54.754Z,22.23
2022-12-24T16:34:26.260Z,16.87
2022-12-24T16:36:52.896Z,22.70
2022-12-24T16:39:24.084Z,19.80
2022-12-24T16:42:13.699Z,14.23
2022-12-24T16:44:41.406Z,19.63
2022-12-24T16:47:13.875Z,13.90
2022-12-24T16:49:40.425Z,19.63
2022-12-24T16:52:14.523Z,17.80
2022-12-24T16:54:41.075Z,17.27
2022-12-24T16:57:09.977Z,19.07
2022-12-24T16:59:37.871Z,18.47
2022-12-24T17:02:10.828Z,16.53
2022-12-24T17:04:41.122Z,12.90
2022-12-24T17:07:08.270Z,17.30
2022-12-24T17:09:34.766Z,18.67
2022-12-24T17:12:01.254Z,17.17
2022-12-24T17:14:27.672Z,16.53
2022-12-24T17:16:54.173Z,14.00
2022-12-24T17:19:20.648Z,14.13
2022-12-24T17:21:47.119Z,16.57
2022-12-24T17:24:14.379Z,13.40
2022-12-24T17:26:42.466Z,15.87
2022-12-24T17:29:09.612Z,14.83
2022-12-24T17:31:39.163Z,18.23
2022-12-24T17:34:05.738Z,14.13
2022-12-24T17:36:32.516Z,15.40
2022-12-24T17:38:59.021Z,12.97
2022-12-24T17:41:25.534Z,20.33
2022-12-24T17:43:52.018Z,14.00
2022-12-24T17:46:23.382Z,13.90
2022-12-24T17:48:51.120Z,15.30
2022-12-24T17:51:20.508Z,14.13
2022-12-24T17:53:47.928Z,16.57
2022-12-24T17:56:15.507Z,15.23
2022-12-24T17:58:43.622Z,14.93
2022-12-24T18:01:15.637Z,16.33
2022-12-24T18:03:42.638Z,20.23
2022-12-24T18:06:11.423Z,13.20
2022-12-24T18:08:39.566Z,17.13
2022-12-24T18:11:16.944Z,13.63
2022-12-24T18:13:43.693Z,12.73
2022-12-24T18:16:18.913Z,19.47
2022-12-24T18:18:45.863Z,15.87
2022-12-24T18:21:12.704Z,17.27
2022-12-24T18:23:43.155Z,16.03
2022-12-24T18:26:10.643Z,15.23
2022-12-24T18:28:37.091Z,13.93
2022-12-24T18:31:06.366Z,14.63
2022-12-24T18:33:33.955Z,13.23
2022-12-24T18:36:00.496Z,17.97
2022-12-24T18:38:27.803Z,17.10
2022-12-24T18:40:54.328Z,16.57
2022-12-24T18:43:20.808Z,18.30
2022-12-24T18:45:47.695Z,17.40
2022-12-24T18:48:14.200Z,14.63
2022-12-24T18:50:41.643Z,9.93
2022-12-24T18:53:08.158Z,15.30
2022-12-24T18:55:36.210Z,15.50
2022-12-24T18:58:03.177Z,12.73
2022-12-24T19:00:30.018Z,15.80
2022-12-24T19:02:56.611Z,13.07
2022-12-24T19:05:23.713Z,19.17
2022-12-24T19:07:50.189Z,14.00
2022-12-24T19:10:16.783Z,17.00
2022-12-24T19:12:43.395Z,19.47
2022-12-24T19:15:10.381Z,19.73
2022-12-24T19:17:36.886Z,22.13
2022-12-24T19:20:03.675Z,21.13
2022-12-24T19:22:30.192Z,26.47
2022-12-24T19:24:56.740Z,22.43
2022-12-24T19:27:23.220Z,23.83
2022-12-24T19:29:49.759Z,19.33
2022-12-24T19:32:16.244Z,19.23
2022-12-24T19:34:42.792Z,20.30
2022-12-24T19:37:09.537Z,23.17
2022-12-24T19:39:35.993Z,19.07
2022-12-24T19:42:02.931Z,20.63
2022-12-24T19:44:29.599Z,16.23
2022-12-24T19:46:56.093Z,17.80
2022-12-24T19:49:22.585Z,15.53
2022-12-24T19:51:49.432Z,22.60
2022-12-24T19:54:19.211Z,20.47
2022-12-24T19:56:46.364Z,17.37
2022-12-24T19:59:12.950Z,12.93
2022-12-24T20:01:39.739Z,11.90
2022-12-24T20:04:06.495Z,17.50
2022-12-24T20:06:35.080Z,15.97
2022-12-24T20:09:07.219Z,16.07
2022-12-24T20:11:34.888Z,26.83
2022-12-24T20:14:03.448Z,21.07
2022-12-24T20:16:30.202Z,19.73
2022-12-24T20:18:59.367Z,22.23
2022-12-24T20:21:26.920Z,28.80
2022-12-24T20:23:54.471Z,24.67
2022-12-24T20:26:23.684Z,27.33
2022-12-24T20:28:50.982Z,29.40
2022-12-24T20:31:27.371Z,22.47
2022-12-24T20:33:55.293Z,25.83
2022-12-24T20:36:23.099Z,25.77
2022-12-24T20:38:50.361Z,29.47
2022-12-24T20:41:19.086Z,24.53
2022-12-24T20:43:48.612Z,28.47
2022-12-24T20:46:16.964Z,22.47
2022-12-24T20:48:43.927Z,20.93
2022-12-24T20:51:20.980Z,18.77
2022-12-24T20:53:50.819Z,17.10
2022-12-24T20:56:18.081Z,19.87
2022-12-24T20:58:45.274Z,21.70
2022-12-24T21:01:15.674Z,13.70
2022-12-24T21:03:42.393Z,11.97
2022-12-24T21:06:08.945Z,18.57
2022-12-24T21:08:36.188Z,14.27
2022-12-24T21:11:21.033Z,16.37
2022-12-24T21:13:47.548Z,12.70
2022-12-24T21:16:14.053Z,14.57
2022-12-24T21:18:41.716Z,13.47
2022-12-24T21:21:08.229Z,14.90
2022-12-24T21:23:36.192Z,20.77
2022-12-24T21:26:05.017Z,28.33
2022-12-24T21:28:32.784Z,23.67
2022-12-24T21:30:59.997Z,30.67
2022-12-24T21:33:26.884Z,22.50
2022-12-24T21:35:59.912Z,21.60
2022-12-24T21:38:27.263Z,25.40
2022-12-24T21:41:02.427Z,21.53
2022-12-24T21:43:34.202Z,26.83
2022-12-24T21:46:01.173Z,22.43
2022-12-24T21:48:46.688Z,24.90
2022-12-24T21:51:13.168Z,19.77
2022-12-24T21:53:58.473Z,20.60
2022-12-24T21:56:24.955Z,18.07
2022-12-24T21:58:51.917Z,22.47
2022-12-24T22:01:19.634Z,18.80
2022-12-24T22:03:49.871Z,15.73
2022-12-24T22:06:35.040Z,18.53
2022-12-24T22:09:20.331Z,20.13
2022-12-24T22:11:54.228Z,19.57
2022-12-24T22:14:21.042Z,17.47
2022-12-24T22:16:47.630Z,18.70
2022-12-24T22:19:14.148Z,21.63
2022-12-24T22:21:40.721Z,20.10
2022-12-24T22:24:07.715Z,19.53
2022-12-24T22:26:34.199Z,17.57
2022-12-24T22:29:00.647Z,15.07
2022-12-24T22:31:27.350Z,16.53
2022-12-24T22:33:54.189Z,14.27
2022-12-24T22:36:20.812Z,14.23
2022-12-24T22:38:47.392Z,16.50
2022-12-24T22:41:16.755Z,16.83
2022-12-24T22:43:44.142Z,16.97
2022-12-24T22:46:13.284Z,18.70
2022-12-24T22:48:41.765Z,14.73
2022-12-24T22:51:10.494Z,13.27
2022-12-24T22:53:39.041Z,15.80
2022-12-24T22:56:06.855Z,12.57
2022-12-24T22:58:34.052Z,16.27
2022-12-24T23:01:00.635Z,11.93
2022-12-24T23:03:28.793Z,11.03
2022-12-24T23:06:00.137Z,10.43
2022-12-24T23:08:27.972Z,20.77
2022-12-24T23:11:11.018Z,12.47
2022-12-24T23:13:58.679Z,24.13
2022-12-24T23:16:27.215Z,22.23
2022-12-24T23:18:54.867Z,16.10
2022-12-24T23:21:21.321Z,20.50
2022-12-24T23:23:47.887Z,21.80
2022-12-24T23:26:17.045Z,21.60
2022-12-24T23:28:44.732Z,24.10
2022-12-24T23:31:12.758Z,19.03
2022-12-24T23:33:39.622Z,21.07
2022-12-24T23:36:06.505Z,19.87
2022-12-24T23:38:33.133Z,17.73
2022-12-24T23:41:01.950Z,18.77
2022-12-24T23:43:29.072Z,17.03
2022-12-24T23:45:55.923Z,21.43
2022-12-24T23:48:24.214Z,15.00
2022-12-24T23:50:51.470Z,19.40
2022-12-24T23:53:19.667Z,16.83
2022-12-24T23:55:46.122Z,10.47
2022-12-24T23:58:14.667Z,12.27
